Time;durP1;ratioP1;P1;durP2;ratioP2;P2;SDS_P1;SDS_P2;PMS_P1;PMS_P2;Temp;Humidity;BMP_temperature;BMP_pressure;BME280_temperature;BME280_humidity;BME280_pressure;Samples;Min_cycle;Max_cycle;Signal;HPM_P1;HPM_P2
2022/03/13 00:00:47;;;;;;;4.90;2.58;;;23.50;26.90;;;;;;5065940;28;20038;-48
2022/03/13 00:03:14;;;;;;;3.45;1.98;;;23.50;26.90;;;;;;5065943;28;20039;-49
2022/03/13 00:05:42;;;;;;;3.80;2.40;;;23.50;26.90;;;;;;5065845;28;20115;-49
2022/03/13 00:08:19;;;;;;;3.42;2.15;;;23.40;27.40;;;;;;5065964;28;20028;-50
2022/03/13 00:10:50;;;;;;;3.63;2.08;;;23.40;26.80;;;;;;5063932;28;20024;-50
2022/03/13 00:13:18;;;;;;;3.58;2.20;;;23.40;26.90;;;;;;5065111;28;20044;-49
2022/03/13 00:15:45;;;;;;;5.13;2.40;;;23.40;26.80;;;;;;5065542;28;20017;-49
2022/03/13 00:18:11;;;;;;;4.10;2.60;;;23.40;26.90;;;;;;5065522;28;20130;-49
2022/03/13 00:20:38;;;;;;;3.65;2.35;;;23.40;26.90;;;;;;5065193;28;20112;-49
2022/03/13 00:23:05;;;;;;;4.30;2.17;;;23.40;26.90;;;;;;5065838;28;20454;-48
2022/03/13 00:25:31;;;;;;;3.63;2.20;;;23.30;26.90;;;;;;5065854;28;20032;-50
2022/03/13 00:27:57;;;;;;;4.32;2.30;;;23.30;26.90;;;;;;5065341;28;20040;-49
2022/03/13 00:30:23;;;;;;;3.95;2.45;;;23.30;27.00;;;;;;5065643;28;20063;-48
2022/03/13 00:32:49;;;;;;;4.30;2.25;;;23.30;27.00;;;;;;5065300;28;20024;-49
2022/03/13 00:35:15;;;;;;;3.67;2.22;;;23.30;27.00;;;;;;5065411;28;20501;-49
2022/03/13 00:37:41;;;;;;;4.80;2.60;;;23.30;27.00;;;;;;5065619;28;20055;-49
2022/03/13 00:40:08;;;;;;;4.07;2.30;;;23.20;27.00;;;;;;5064522;28;20111;-49
2022/03/13 00:42:34;;;;;;;4.20;2.35;;;23.20;27.00;;;;;;5065702;28;20553;-49
2022/03/13 00:45:00;;;;;;;4.07;2.22;;;23.20;27.70;;;;;;5065506;28;20102;-49
2022/03/13 00:47:26;;;;;;;4.18;2.33;;;23.20;27.00;;;;;;5065123;28;20483;-49
2022/03/13 00:49:52;;;;;;;3.58;1.90;;;23.20;27.00;;;;;;5065226;28;20025;-50
2022/03/13 00:52:17;;;;;;;3.97;2.22;;;23.20;27.00;;;;;;5064217;28;20036;-50
2022/03/13 00:54:44;;;;;;;3.55;2.10;;;23.20;27.00;;;;;;5065626;28;20478;-50
2022/03/13 00:57:10;;;;;;;3.50;1.90;;;23.10;27.00;;;;;;5063871;28;20113;-50
2022/03/13 00:59:36;;;;;;;3.67;2.20;;;23.10;27.00;;;;;;5065171;28;20021;-49
2022/03/13 01:02:02;;;;;;;3.58;2.25;;;23.10;27.00;;;;;;5064088;28;20024;-50
2022/03/13 01:04:28;;;;;;;4.05;2.38;;;23.10;27.00;;;;;;5065177;28;20094;-49
2022/03/13 01:06:53;;;;;;;3.92;2.50;;;23.10;27.00;;;;;;5064425;28;20500;-49
2022/03/13 01:09:19;;;;;;;4.60;2.45;;;23.10;27.00;;;;;;5062774;28;20071;-49
2022/03/13 01:11:45;;;;;;;3.47;2.03;;;23.10;27.10;;;;;;5064399;28;20123;-49
2022/03/13 01:14:12;;;;;;;4.80;2.50;;;23.10;27.10;;;;;;5064817;28;20025;-49
2022/03/13 01:16:40;;;;;;;3.83;2.25;;;23.00;27.00;;;;;;5064607;28;20549;-49
2022/03/13 01:19:08;;;;;;;3.45;1.98;;;23.00;27.00;;;;;;5064419;28;20655;-49
2022/03/13 01:21:39;;;;;;;4.07;2.28;;;23.00;27.00;;;;;;5064337;28;20056;-50
2022/03/13 01:24:11;;;;;;;3.67;2.22;;;23.00;27.00;;;;;;5064609;28;20027;-50
2022/03/13 01:26:38;;;;;;;4.15;2.40;;;23.00;27.10;;;;;;5064297;28;20142;-48
2022/03/13 01:29:14;;;;;;;3.50;2.15;;;23.00;27.10;;;;;;5064169;28;20071;-48
2022/03/13 01:31:44;;;;;;;3.40;2.00;;;23.00;27.20;;;;;;5064480;28;20523;-49
2022/03/13 01:34:13;;;;;;;3.75;2.05;;;23.00;27.10;;;;;;5064927;28;20104;-48
2022/03/13 01:36:40;;;;;;;4.10;2.33;;;23.00;27.20;;;;;;5063909;28;20021;-50
2022/03/13 01:39:07;;;;;;;3.42;2.08;;;22.90;27.20;;;;;;5062770;28;20048;-49
2022/03/13 01:41:34;;;;;;;4.20;2.50;;;22.90;27.20;;;;;;5063909;28;20033;-50
2022/03/13 01:44:00;;;;;;;4.07;2.25;;;22.90;27.20;;;;;;5063779;28;20028;-50
2022/03/13 01:46:28;;;;;;;3.22;1.92;;;22.90;27.10;;;;;;5064093;28;20731;-50
2022/03/13 01:48:55;;;;;;;3.85;2.35;;;22.90;27.10;;;;;;5064050;28;20111;-49
2022/03/13 01:51:22;;;;;;;3.63;2.10;;;22.90;27.10;;;;;;5064178;28;20113;-49
2022/03/13 01:53:57;;;;;;;3.97;2.42;;;22.90;27.20;;;;;;5064198;28;20496;-49
2022/03/13 01:56:23;;;;;;;3.78;2.35;;;22.80;27.10;;;;;;5063856;28;20107;-50
2022/03/13 01:58:52;;;;;;;4.90;2.20;;;22.80;27.10;;;;;;5064214;28;20031;-50
2022/03/13 02:01:19;;;;;;;4.35;2.22;;;22.80;27.10;;;;;;5062672;28;20749;-49
2022/03/13 02:03:46;;;;;;;3.97;2.30;;;22.80;27.20;;;;;;5064232;28;20041;-50
2022/03/13 02:06:11;;;;;;;3.75;2.33;;;22.80;27.10;;;;;;5063593;28;20061;-49
2022/03/13 02:08:37;;;;;;;3.95;2.30;;;22.80;27.10;;;;;;5064184;28;20455;-49
2022/03/13 02:11:04;;;;;;;4.20;2.40;;;22.80;27.10;;;;;;5063533;28;20590;-50
2022/03/13 02:13:33;;;;;;;3.75;2.22;;;22.80;27.20;;;;;;5064141;28;20025;-49
2022/03/13 02:15:58;;;;;;;3.83;2.20;;;22.80;27.20;;;;;;5063938;28;20028;-49
2022/03/13 02:18:24;;;;;;;3.53;2.00;;;22.80;27.20;;;;;;5062331;28;20797;-49
2022/03/13 02:20:50;;;;;;;4.22;2.42;;;22.80;27.30;;;;;;5063904;28;20706;-49
2022/03/13 02:23:22;;;;;;;4.30;2.50;;;22.70;27.20;;;;;;5064103;28;20029;-48
2022/03/13 02:25:53;;;;;;;3.58;2.28;;;22.70;27.20;;;;;;5064150;28;20036;-50
2022/03/13 02:28:26;;;;;;;3.58;2.30;;;22.70;27.30;;;;;;5064016;28;20032;-49
2022/03/13 02:30:54;;;;;;;4.72;2.40;;;22.70;27.20;;;;;;5064006;28;20568;-48
2022/03/13 02:33:20;;;;;;;3.60;2.20;;;22.70;27.20;;;;;;5062792;28;20116;-50
2022/03/13 02:35:56;;;;;;;4.07;2.35;;;22.70;27.30;;;;;;5065531;28;20085;-49
2022/03/13 02:38:23;;;;;;;4.10;2.50;;;22.70;27.30;;;;;;5067861;28;20112;-48
2022/03/13 02:40:49;;;;;;;3.35;1.88;;;22.60;27.20;;;;;;5066685;28;20032;-50
2022/03/13 02:43:16;;;;;;;4.50;2.13;;;22.60;27.20;;;;;;5067983;28;20085;-48
2022/03/13 02:45:42;;;;;;;3.50;2.17;;;22.60;27.20;;;;;;5067953;28;20178;-49
2022/03/13 02:48:09;;;;;;;3.75;2.20;;;22.60;27.20;;;;;;5067454;28;20040;-49
2022/03/13 02:50:36;;;;;;;4.18;2.40;;;22.60;27.20;;;;;;5067225;28;20033;-49
2022/03/13 02:53:03;;;;;;;4.10;2.50;;;22.60;27.20;;;;;;5067276;28;20032;-48
2022/03/13 02:55:29;;;;;;;4.10;2.40;;;22.60;27.20;;;;;;5067624;28;20028;-48
2022/03/13 02:57:56;;;;;;;3.50;2.05;;;22.60;27.20;;;;;;5067887;28;20025;-49
2022/03/13 03:00:38;;;;;;;4.45;2.55;;;22.60;27.20;;;;;;5066384;28;20032;-49
2022/03/13 03:03:04;;;;;;;3.55;2.05;;;22.60;27.30;;;;;;5067527;28;20097;-50
2022/03/13 03:05:31;;;;;;;3.65;2.22;;;22.60;27.20;;;;;;5066917;28;20075;-49
2022/03/13 03:07:57;;;;;;;3.72;2.15;;;22.60;27.20;;;;;;5067128;28;20043;-49
2022/03/13 03:10:23;;;;;;;4.03;2.42;;;22.60;27.20;;;;;;5066598;28;20028;-49
2022/03/13 03:12:48;;;;;;;4.07;2.50;;;22.50;27.30;;;;;;5065622;28;20030;-49
2022/03/13 03:15:18;;;;;;;4.03;2.53;;;22.50;27.30;;;;;;5067020;28;20070;-49
2022/03/13 03:17:43;;;;;;;3.78;2.45;;;22.50;27.30;;;;;;5066702;28;20094;-49
2022/03/13 03:20:11;;;;;;;3.35;2.00;;;22.50;27.90;;;;;;5066378;28;20032;-48
2022/03/13 03:22:37;;;;;;;4.03;2.45;;;22.50;27.30;;;;;;5065281;28;20136;-50
2022/03/13 03:25:04;;;;;;;4.22;2.63;;;22.50;27.30;;;;;;5067053;28;20103;-49
2022/03/13 03:27:31;;;;;;;3.72;2.20;;;22.50;27.30;;;;;;5066653;28;20039;-50
2022/03/13 03:29:58;;;;;;;4.03;2.38;;;22.50;27.20;;;;;;5066330;28;20017;-48
2022/03/13 03:32:24;;;;;;;3.22;2.00;;;22.40;27.20;;;;;;5066327;28;20021;-49
2022/03/13 03:34:50;;;;;;;4.00;2.22;;;22.50;27.30;;;;;;5066008;28;20023;-49
2022/03/13 03:37:16;;;;;;;4.55;2.50;;;22.40;27.20;;;;;;5065398;28;20063;-50
2022/03/13 03:39:41;;;;;;;3.50;1.98;;;22.40;27.20;;;;;;5066400;28;20032;-49
2022/03/13 03:42:08;;;;;;;3.80;2.47;;;22.40;27.20;;;;;;5066441;28;20035;-50
2022/03/13 03:44:33;;;;;;;3.58;2.20;;;22.40;27.20;;;;;;5066078;28;20501;-49
2022/03/13 03:47:00;;;;;;;3.95;2.28;;;22.40;27.20;;;;;;5064927;28;20037;-50
2022/03/13 03:49:25;;;;;;;4.55;2.72;;;22.40;27.20;;;;;;5065890;28;20098;-49
2022/03/13 03:51:52;;;;;;;4.22;2.30;;;22.40;27.30;;;;;;5065705;28;20040;-49
2022/03/13 03:54:18;;;;;;;4.35;2.47;;;22.40;27.30;;;;;;5065447;28;20027;-49
2022/03/13 03:56:45;;;;;;;4.57;2.42;;;22.40;27.30;;;;;;5064883;28;20100;-49
2022/03/13 03:59:11;;;;;;;4.28;2.38;;;22.40;27.30;;;;;;5063974;28;20028;-48
2022/03/13 04:01:40;;;;;;;3.83;2.10;;;22.40;27.30;;;;;;5065748;28;20546;-48
2022/03/13 04:04:07;;;;;;;4.30;2.70;;;22.30;27.30;;;;;;5064060;28;20028;-49
2022/03/13 04:06:34;;;;;;;3.80;2.10;;;22.30;27.30;;;;;;5064375;28;20025;-49
2022/03/13 04:09:01;;;;;;;3.92;2.28;;;22.30;27.20;;;;;;5065919;28;20036;-48
2022/03/13 04:11:27;;;;;;;4.70;2.40;;;22.30;27.20;;;;;;5065092;28;20025;-49
2022/03/13 04:13:52;;;;;;;4.07;2.58;;;22.30;27.20;;;;;;5066039;28;20516;-50
2022/03/13 04:16:18;;;;;;;3.83;2.30;;;22.30;27.20;;;;;;5065766;28;20021;-49
2022/03/13 04:18:44;;;;;;;4.97;2.80;;;22.30;27.20;;;;;;5065753;28;20032;-50
2022/03/13 04:21:09;;;;;;;3.83;2.33;;;22.30;27.20;;;;;;5065519;28;20399;-49
2022/03/13 04:23:36;;;;;;;3.67;2.22;;;22.30;27.30;;;;;;5066030;28;20028;-48
2022/03/13 04:26:03;;;;;;;4.10;2.58;;;22.30;27.30;;;;;;5064247;28;20040;-49
2022/03/13 04:28:29;;;;;;;3.60;2.20;;;22.30;27.30;;;;;;5065570;28;20051;-49
2022/03/13 04:30:57;;;;;;;4.30;2.40;;;22.30;27.30;;;;;;5065630;28;20038;-49
2022/03/13 04:33:35;;;;;;;3.92;2.30;;;22.30;27.30;;;;;;5065607;28;20021;-50
2022/03/13 04:36:05;;;;;;;4.65;2.50;;;22.20;27.20;;;;;;5065682;28;20499;-48
2022/03/13 04:38:31;;;;;;;4.10;2.53;;;22.20;27.30;;;;;;5065376;28;20063;-49
2022/03/13 04:40:57;;;;;;;4.97;2.45;;;22.20;27.20;;;;;;5065124;28;20052;-50
2022/03/13 04:43:23;;;;;;;3.90;2.30;;;22.20;27.20;;;;;;5065252;28;20072;-49
2022/03/13 04:45:51;;;;;;;4.07;2.40;;;22.20;27.30;;;;;;5065411;28;20067;-49
2022/03/13 04:48:18;;;;;;;3.72;2.47;;;22.20;27.30;;;;;;5065290;28;20523;-50
2022/03/13 04:50:45;;;;;;;4.32;2.42;;;22.20;27.30;;;;;;5064957;28;20028;-50
2022/03/13 04:53:11;;;;;;;4.10;2.40;;;22.20;27.30;;;;;;5065235;28;20031;-50
2022/03/13 04:55:37;;;;;;;3.85;2.25;;;22.10;27.30;;;;;;5064408;28;20523;-48
2022/03/13 04:58:03;;;;;;;4.05;2.50;;;22.10;27.30;;;;;;5064956;28;20020;-48
2022/03/13 05:00:30;;;;;;;4.00;2.45;;;22.10;27.30;;;;;;5065016;28;20616;-50
2022/03/13 05:02:55;;;;;;;3.80;2.28;;;22.10;27.30;;;;;;5064834;28;20021;-49
2022/03/13 05:05:22;;;;;;;4.25;2.25;;;22.10;27.30;;;;;;5064463;28;20134;-48
2022/03/13 05:07:52;;;;;;;4.18;2.38;;;22.10;27.30;;;;;;5064627;28;20059;-49
2022/03/13 05:10:19;;;;;;;4.10;2.50;;;22.10;27.30;;;;;;5064550;28;20028;-49
2022/03/13 05:12:46;;;;;;;3.78;2.22;;;22.10;27.90;;;;;;5064618;28;20028;-47
2022/03/13 05:15:12;;;;;;;4.00;2.40;;;22.10;27.30;;;;;;5064828;28;20103;-49
2022/03/13 05:17:38;;;;;;;4.25;2.70;;;22.10;27.30;;;;;;5064460;28;20754;-48
2022/03/13 05:20:05;;;;;;;4.45;2.55;;;22.10;27.30;;;;;;5064257;28;20036;-49
2022/03/13 05:22:31;;;;;;;3.72;2.30;;;22.10;27.30;;;;;;5064629;28;20060;-49
2022/03/13 05:24:57;;;;;;;3.80;2.10;;;22.10;27.40;;;;;;5064533;28;20074;-49
2022/03/13 05:27:23;;;;;;;3.65;2.28;;;22.10;27.40;;;;;;5064121;28;20440;-48
2022/03/13 05:29:49;;;;;;;3.40;1.98;;;22.10;27.40;;;;;;5064586;28;20024;-48
2022/03/13 05:32:14;;;;;;;4.32;2.55;;;22.10;27.30;;;;;;5063594;28;20162;-49
2022/03/13 05:34:40;;;;;;;4.15;2.25;;;22.10;27.30;;;;;;5064696;28;20033;-49
2022/03/13 05:37:07;;;;;;;3.92;2.17;;;22.00;27.20;;;;;;5064346;28;20059;-48
2022/03/13 05:39:33;;;;;;;3.97;2.47;;;22.00;27.30;;;;;;5063777;28;20107;-49
2022/03/13 05:41:59;;;;;;;4.00;2.30;;;22.00;27.30;;;;;;5064428;28;20032;-49
2022/03/13 05:44:26;;;;;;;3.80;2.22;;;22.00;27.20;;;;;;5064289;28;20047;-48
2022/03/13 05:46:51;;;;;;;3.90;2.33;;;22.00;27.20;;;;;;5063933;28;20028;-49
2022/03/13 05:49:17;;;;;;;3.72;2.30;;;22.00;27.30;;;;;;5063821;28;20024;-50
2022/03/13 05:51:43;;;;;;;3.70;2.30;;;22.00;27.20;;;;;;5063727;28;20439;-49
2022/03/13 05:54:10;;;;;;;3.67;2.30;;;22.00;27.20;;;;;;5064091;28;20025;-50
2022/03/13 05:56:36;;;;;;;3.97;2.50;;;21.90;27.20;;;;;;5062863;28;20032;-49
2022/03/13 05:59:02;;;;;;;4.00;2.20;;;22.00;27.20;;;;;;5063595;28;20107;-50
2022/03/13 06:01:27;;;;;;;3.60;2.30;;;22.00;27.30;;;;;;5063165;28;20100;-49
2022/03/13 06:03:53;;;;;;;5.13;2.60;;;21.90;27.30;;;;;;5064105;28;20029;-50
2022/03/13 06:06:20;;;;;;;3.67;2.30;;;22.00;27.30;;;;;;5061566;28;20077;-49
2022/03/13 06:08:46;;;;;;;3.85;2.40;;;22.00;27.30;;;;;;5061830;28;20073;-50
2022/03/13 06:11:12;;;;;;;3.60;2.50;;;22.00;27.30;;;;;;5062089;28;20078;-48
2022/03/13 06:13:38;;;;;;;3.45;2.35;;;21.90;27.30;;;;;;5065095;28;20504;-50
2022/03/13 06:16:04;;;;;;;4.43;2.95;;;21.90;27.60;;;;;;5066480;28;20059;-50
2022/03/13 06:18:32;;;;;;;4.03;2.58;;;21.90;27.70;;;;;;5065774;28;20652;-50
2022/03/13 06:20:58;;;;;;;4.10;2.50;;;21.90;27.70;;;;;;5065898;28;20539;-49
2022/03/13 06:23:24;;;;;;;5.18;2.33;;;22.00;27.70;;;;;;5066422;28;20166;-50
2022/03/13 06:25:50;;;;;;;4.22;2.72;;;22.00;28.00;;;;;;5065667;28;20056;-50
2022/03/13 06:28:18;;;;;;;5.38;3.00;;;22.00;28.20;;;;;;5061402;28;20028;-51
2022/03/13 06:30:44;;;;;;;5.57;2.83;;;22.00;28.60;;;;;;5065176;28;20021;-49
2022/03/13 06:33:10;;;;;;;6.20;2.95;;;22.00;28.90;;;;;;5066330;28;20028;-50
2022/03/13 06:35:35;;;;;;;7.07;3.38;;;22.10;28.80;;;;;;5064360;28;20085;-50
2022/03/13 06:38:01;;;;;;;9.00;4.13;;;22.10;29.00;;;;;;5065951;28;20046;-48
2022/03/13 06:40:27;;;;;;;12.35;5.22;;;22.10;29.30;;;;;;5066036;28;20035;-49
2022/03/13 06:42:55;;;;;;;10.07;3.88;;;22.20;29.60;;;;;;5064409;28;20090;-49
2022/03/13 06:45:21;;;;;;;10.82;4.78;;;22.30;29.70;;;;;;5066687;28;20111;-50
2022/03/13 06:47:51;;;;;;;8.35;3.78;;;22.40;29.80;;;;;;5066513;28;20032;-49
2022/03/13 06:50:19;;;;;;;9.75;4.45;;;22.40;29.60;;;;;;5065751;28;20103;-50
2022/03/13 06:52:46;;;;;;;6.93;4.03;;;22.50;29.70;;;;;;5066906;28;20067;-49
2022/03/13 06:55:13;;;;;;;11.50;4.90;;;22.60;29.50;;;;;;5066530;28;20487;-49
2022/03/13 06:57:42;;;;;;;13.18;4.18;;;22.60;29.30;;;;;;5066703;28;20524;-50
2022/03/13 07:00:12;;;;;;;8.98;3.95;;;22.80;29.30;;;;;;5066723;28;20124;-49
2022/03/13 07:02:38;;;;;;;10.73;4.00;;;22.80;29.30;;;;;;5066085;28;20086;-49
2022/03/13 07:05:05;;;;;;;9.60;3.55;;;22.90;29.10;;;;;;5066701;28;20037;-50
2022/03/13 07:07:30;;;;;;;8.82;4.22;;;23.00;29.00;;;;;;5066292;28;20035;-50
2022/03/13 07:09:57;;;;;;;8.70;4.00;;;23.00;28.90;;;;;;5064088;28;20025;-51
2022/03/13 07:12:24;;;;;;;7.60;3.75;;;23.10;28.80;;;;;;5064164;28;20518;-50
2022/03/13 07:14:50;;;;;;;7.28;3.58;;;23.20;28.70;;;;;;5064310;28;20107;-50
2022/03/13 07:17:16;;;;;;;9.30;3.60;;;23.20;29.10;;;;;;5065305;28;20099;-49
2022/03/13 07:19:44;;;;;;;7.82;4.40;;;23.40;29.40;;;;;;5065454;28;20037;-51
2022/03/13 07:22:14;;;;;;;7.63;3.95;;;23.40;29.50;;;;;;5057594;28;20781;-50
2022/03/13 07:24:41;;;;;;;6.95;3.35;;;23.50;29.50;;;;;;5062146;28;20093;-50
2022/03/13 07:27:07;;;;;;;9.30;3.78;;;23.50;29.70;;;;;;5062650;28;20973;-50
2022/03/13 07:29:34;;;;;;;8.32;3.63;;;23.60;29.40;;;;;;5063383;28;20028;-49
2022/03/13 07:31:59;;;;;;;7.15;3.08;;;23.70;29.30;;;;;;5064156;28;20369;-49
2022/03/13 07:34:26;;;;;;;6.95;3.97;;;23.80;29.20;;;;;;5063563;28;20031;-48
2022/03/13 07:36:52;;;;;;;7.25;4.28;;;23.80;29.00;;;;;;5062093;28;20017;-49
2022/03/13 07:39:21;;;;;;;7.63;3.83;;;23.80;28.90;;;;;;5065064;28;20029;-49
2022/03/13 07:41:47;;;;;;;9.00;3.72;;;23.80;28.80;;;;;;5064763;28;20726;-51
2022/03/13 07:44:12;;;;;;;6.28;3.47;;;23.90;28.70;;;;;;5064620;28;20123;-49
2022/03/13 07:46:38;;;;;;;5.72;3.10;;;24.00;28.50;;;;;;5064557;28;20127;-48
2022/03/13 07:49:04;;;;;;;5.10;3.10;;;24.10;28.50;;;;;;5064589;28;20031;-49
2022/03/13 07:51:32;;;;;;;6.32;3.22;;;24.10;28.40;;;;;;5060081;28;20145;-49
2022/03/13 07:53:58;;;;;;;4.40;2.72;;;24.10;28.60;;;;;;5061448;28;20028;-50
2022/03/13 07:56:24;;;;;;;5.40;3.13;;;24.20;28.50;;;;;;5063732;28;20037;-50
2022/03/13 07:58:49;;;;;;;5.68;3.35;;;24.20;28.40;;;;;;5062815;28;20055;-51
2022/03/13 08:01:15;;;;;;;6.60;2.95;;;24.20;28.30;;;;;;5063688;28;20020;-48
2022/03/13 08:03:44;;;;;;;5.78;3.75;;;24.40;28.30;;;;;;5063577;28;20025;-49
2022/03/13 08:06:11;;;;;;;5.03;3.15;;;24.40;28.30;;;;;;5063360;28;20024;-49
2022/03/13 08:08:37;;;;;;;5.15;2.80;;;24.40;28.20;;;;;;5064362;28;20036;-49
2022/03/13 08:11:03;;;;;;;5.55;3.10;;;24.50;28.20;;;;;;5064506;28;20525;-48
2022/03/13 08:13:29;;;;;;;4.38;2.53;;;24.50;28.20;;;;;;5063273;28;20024;-49
2022/03/13 08:15:54;;;;;;;4.95;2.90;;;24.60;28.10;;;;;;5064389;28;20024;-50
2022/03/13 08:18:20;;;;;;;4.80;2.80;;;24.60;28.00;;;;;;5064432;28;20028;-50
2022/03/13 08:20:46;;;;;;;6.38;3.10;;;24.70;28.00;;;;;;5061044;28;20045;-49
2022/03/13 08:23:12;;;;;;;5.53;2.65;;;24.70;27.80;;;;;;5064496;28;20027;-50
2022/03/13 08:25:38;;;;;;;4.28;2.80;;;24.70;27.70;;;;;;5063581;28;20033;-48
2022/03/13 08:28:06;;;;;;;4.95;2.75;;;24.70;27.60;;;;;;5062961;28;20044;-50
2022/03/13 08:30:33;;;;;;;6.13;3.25;;;24.80;27.60;;;;;;5062117;28;20445;-50
2022/03/13 08:32:59;;;;;;;5.82;2.95;;;24.80;27.80;;;;;;5063823;28;20040;-50
2022/03/13 08:35:24;;;;;;;6.57;3.63;;;24.90;27.80;;;;;;5065188;28;20025;-49
2022/03/13 08:37:52;;;;;;;5.18;2.65;;;24.90;27.80;;;;;;5064360;28;20035;-50
2022/03/13 08:40:18;;;;;;;5.18;2.38;;;25.00;27.70;;;;;;5064228;28;20048;-50
2022/03/13 08:42:44;;;;;;;4.35;2.47;;;25.00;27.70;;;;;;5064121;28;20063;-49
2022/03/13 08:45:11;;;;;;;5.53;3.22;;;25.00;27.60;;;;;;5064321;28;20027;-49
2022/03/13 08:47:38;;;;;;;6.18;3.10;;;25.00;27.60;;;;;;5064171;28;20129;-49
2022/03/13 08:50:05;;;;;;;4.55;2.90;;;25.00;27.50;;;;;;5064018;28;20032;-49
2022/03/13 08:52:31;;;;;;;4.72;3.00;;;25.10;27.40;;;;;;5064663;28;20020;-48
2022/03/13 08:54:56;;;;;;;5.55;2.83;;;25.10;27.40;;;;;;5058367;28;20021;-49
2022/03/13 08:57:22;;;;;;;4.60;2.55;;;25.20;27.40;;;;;;5062089;28;20631;-50
2022/03/13 08:59:48;;;;;;;4.53;2.75;;;25.20;27.40;;;;;;5062431;28;20098;-49
2022/03/13 09:02:18;;;;;;;4.75;2.90;;;25.20;27.30;;;;;;5061018;28;20032;-49
2022/03/13 09:04:44;;;;;;;5.70;2.90;;;25.20;27.50;;;;;;5061557;28;20368;-50
2022/03/13 09:07:10;;;;;;;5.85;2.80;;;25.20;27.60;;;;;;5062030;28;20066;-49
2022/03/13 09:09:35;;;;;;;5.55;3.00;;;25.20;27.70;;;;;;5060437;28;20078;-49
2022/03/13 09:12:02;;;;;;;4.78;2.80;;;25.30;27.50;;;;;;5062821;28;20035;-49
2022/03/13 09:14:28;;;;;;;4.40;2.85;;;25.30;27.40;;;;;;5062024;28;20036;-48
2022/03/13 09:16:54;;;;;;;4.30;2.53;;;25.30;27.40;;;;;;5063199;28;20514;-51
2022/03/13 09:19:20;;;;;;;4.70;2.90;;;25.30;27.20;;;;;;5062580;28;20074;-49
2022/03/13 09:21:47;;;;;;;6.03;2.70;;;25.40;27.20;;;;;;5062705;28;20055;-50
2022/03/13 09:24:12;;;;;;;4.68;2.83;;;25.40;27.10;;;;;;5061719;28;20060;-50
2022/03/13 09:26:43;;;;;;;4.50;2.80;;;25.40;27.10;;;;;;5062495;28;20044;-50
2022/03/13 09:29:09;;;;;;;4.82;2.90;;;25.40;27.20;;;;;;5062410;28;20042;-50
2022/03/13 09:31:35;;;;;;;5.07;3.22;;;25.40;27.20;;;;;;5061614;28;20108;-49
2022/03/13 09:34:01;;;;;;;5.40;3.15;;;25.40;27.40;;;;;;5062029;28;20026;-50
2022/03/13 09:36:27;;;;;;;5.65;3.25;;;25.40;27.40;;;;;;5062673;28;20024;-49
2022/03/13 09:38:53;;;;;;;4.88;3.03;;;25.40;27.50;;;;;;5061966;28;20074;-50
2022/03/13 09:41:20;;;;;;;4.78;3.08;;;25.40;27.50;;;;;;5060818;28;20051;-50
2022/03/13 09:43:46;;;;;;;5.57;2.90;;;25.40;27.50;;;;;;5061933;28;20119;-51
2022/03/13 09:46:16;;;;;;;5.18;2.83;;;25.40;27.50;;;;;;5061235;28;20706;-50
2022/03/13 09:48:43;;;;;;;4.93;2.75;;;25.50;27.40;;;;;;5062009;28;20035;-50
2022/03/13 09:51:09;;;;;;;4.70;3.10;;;25.50;27.40;;;;;;5061620;28;20031;-52
2022/03/13 09:53:36;;;;;;;5.35;2.78;;;25.50;27.30;;;;;;5057423;28;20021;-50
2022/03/13 09:56:03;;;;;;;5.32;3.45;;;25.50;27.30;;;;;;5062187;28;20024;-51
2022/03/13 09:58:30;;;;;;;4.75;3.22;;;25.50;27.20;;;;;;5060541;28;20055;-50
2022/03/13 10:00:57;;;;;;;6.53;3.10;;;25.50;27.10;;;;;;5062497;28;20064;-49
2022/03/13 10:03:22;;;;;;;4.65;3.03;;;25.50;27.00;;;;;;5061801;28;20021;-49
2022/03/13 10:05:50;;;;;;;4.80;3.00;;;25.60;27.00;;;;;;5062788;28;20028;-49
2022/03/13 10:08:18;;;;;;;4.82;3.10;;;25.50;26.90;;;;;;5062957;28;20111;-49
2022/03/13 10:10:50;;;;;;;4.43;2.80;;;25.50;26.90;;;;;;5061364;28;20033;-51
2022/03/13 10:13:32;;;;;;;4.72;2.97;;;25.50;26.90;;;;;;5062459;28;20039;-50
2022/03/13 10:15:58;;;;;;;4.43;2.77;;;25.50;26.70;;;;;;5063162;28;20765;-49
2022/03/13 10:18:25;;;;;;;4.15;2.88;;;25.60;26.70;;;;;;5063364;28;20036;-50
2022/03/13 10:20:52;;;;;;;4.18;2.70;;;25.60;26.70;;;;;;5052848;28;20090;-48
2022/03/13 10:23:20;;;;;;;4.90;2.80;;;25.50;26.80;;;;;;5062398;28;20611;-49
2022/03/13 10:25:48;;;;;;;5.50;3.10;;;25.60;26.70;;;;;;5062573;28;20028;-49
2022/03/13 10:28:31;;;;;;;4.57;2.83;;;25.60;26.70;;;;;;5062709;28;20059;-51
2022/03/13 10:31:00;;;;;;;5.40;2.75;;;25.60;26.70;;;;;;5061971;28;20032;-49
2022/03/13 10:33:27;;;;;;;4.15;2.75;;;25.60;26.70;;;;;;5063246;28;20106;-49
2022/03/13 10:36:14;;;;;;;4.20;2.50;;;25.60;26.70;;;;;;5063124;28;20032;-50
2022/03/13 10:38:41;;;;;;;5.20;2.50;;;25.60;26.50;;;;;;5042196;28;20086;-49
2022/03/13 10:41:08;;;;;;;4.28;2.60;;;25.60;26.50;;;;;;5042299;28;20029;-49
2022/03/13 10:43:49;;;;;;;5.07;2.92;;;25.60;26.60;;;;;;5061229;28;20074;-50
2022/03/13 10:46:29;;;;;;;4.32;2.85;;;25.60;26.70;;;;;;5062964;28;20031;-49
2022/03/13 10:48:57;;;;;;;5.25;2.67;;;25.60;26.50;;;;;;5055033;28;20039;-47
2022/03/13 10:51:46;;;;;;;4.47;2.55;;;25.60;26.70;;;;;;5061623;28;20039;-49
2022/03/13 10:54:29;;;;;;;4.68;2.70;;;25.60;26.80;;;;;;5060677;28;20024;-49
2022/03/13 10:57:08;;;;;;;4.65;2.40;;;25.60;26.90;;;;;;5063063;28;20085;-49
2022/03/13 10:59:35;;;;;;;3.92;2.50;;;25.60;27.20;;;;;;5065332;28;20029;-49
2022/03/13 11:02:14;;;;;;;5.93;3.20;;;25.60;27.40;;;;;;5066143;28;20673;-50
2022/03/13 11:04:51;;;;;;;4.50;2.60;;;25.60;27.60;;;;;;5066050;28;20036;-50
2022/03/13 11:07:19;;;;;;;8.85;3.33;;;25.60;27.60;;;;;;5066768;28;20046;-50
2022/03/13 11:09:45;;;;;;;5.70;2.83;;;25.50;27.80;;;;;;5047748;28;20096;-48
2022/03/13 11:12:21;;;;;;;4.25;2.72;;;25.60;27.60;;;;;;5064100;28;20064;-49
2022/03/13 11:14:56;;;;;;;4.30;2.20;;;25.60;27.40;;;;;;5066339;28;20028;-50
2022/03/13 11:17:25;;;;;;;4.07;2.30;;;25.60;27.40;;;;;;5066002;28;20494;-50
2022/03/13 11:19:53;;;;;;;4.00;2.50;;;25.60;27.40;;;;;;5065742;28;20024;-48
2022/03/13 11:22:20;;;;;;;4.28;2.80;;;25.60;27.30;;;;;;5065908;28;20035;-49
2022/03/13 11:24:51;;;;;;;4.03;2.47;;;25.60;27.20;;;;;;5064021;28;20599;-50
2022/03/13 11:27:18;;;;;;;4.43;2.67;;;25.60;27.10;;;;;;5065374;28;20028;-50
2022/03/13 11:29:52;;;;;;;4.13;2.50;;;25.60;27.20;;;;;;5065337;28;20510;-49
2022/03/13 11:32:37;;;;;;;4.00;2.45;;;25.60;27.40;;;;;;5063393;28;20032;-50
2022/03/13 11:35:18;;;;;;;5.75;3.38;;;25.70;27.40;;;;;;5063339;28;20016;-49
2022/03/13 11:37:43;;;;;;;13.13;7.22;;;25.60;27.40;;;;;;5064828;28;20017;-48
2022/03/13 11:40:12;;;;;;;22.05;10.95;;;25.70;27.30;;;;;;5065373;28;20112;-48
2022/03/13 11:42:46;;;;;;;20.48;12.02;;;25.70;26.90;;;;;;5064609;28;20713;-51
2022/03/13 11:48:19;;;;;;;28.05;14.10;;;25.70;26.70;;;;;;5062300;28;20025;-48
2022/03/13 11:51:00;;;;;;;19.17;10.20;;;25.70;27.50;;;;;;5063926;28;20554;-49
2022/03/13 11:53:40;;;;;;;22.88;11.77;;;25.70;27.10;;;;;;5059400;28;20028;-49
2022/03/13 11:56:09;;;;;;;20.75;11.25;;;25.70;26.30;;;;;;5061242;28;20523;-49
2022/03/13 11:58:41;;;;;;;16.38;9.57;;;25.70;26.10;;;;;;5062953;28;20052;-49
2022/03/13 12:01:12;;;;;;;22.50;10.77;;;25.70;25.60;;;;;;5063085;28;20677;-48
2022/03/13 12:03:39;;;;;;;17.00;9.38;;;25.70;26.00;;;;;;5062689;28;20551;-49
2022/03/13 12:06:05;;;;;;;17.63;10.20;;;25.70;25.30;;;;;;5064210;28;20495;-48
2022/03/13 12:09:06;;;;;;;19.95;11.10;;;25.70;25.10;;;;;;5061745;28;20024;-48
2022/03/13 12:11:38;;;;;;;16.13;9.52;;;25.70;24.80;;;;;;5062412;28;20028;-48
2022/03/13 12:14:09;;;;;;;14.40;8.80;;;25.70;24.80;;;;;;5074357;28;20032;-48
2022/03/13 12:16:35;;;;;;;12.27;7.85;;;25.70;23.90;;;;;;5085366;28;20028;-49
2022/03/13 12:19:02;;;;;;;14.52;7.75;;;25.70;23.90;;;;;;5085108;28;20081;-48
2022/03/13 12:21:28;;;;;;;14.52;9.00;;;25.70;24.10;;;;;;5085023;28;20040;-48
2022/03/13 12:23:56;;;;;;;14.18;8.15;;;25.70;24.40;;;;;;5084437;28;20032;-52
2022/03/13 12:26:30;;;;;;;12.90;7.88;;;25.70;24.70;;;;;;5065192;28;20029;-48
2022/03/13 12:28:57;;;;;;;16.23;8.55;;;25.70;24.90;;;;;;5057197;28;20454;-49
2022/03/13 12:31:25;;;;;;;14.98;8.15;;;25.70;25.10;;;;;;5061791;28;20380;-49
2022/03/13 12:33:54;;;;;;;16.00;7.80;;;25.80;25.10;;;;;;5062033;28;20106;-48
2022/03/13 12:36:23;;;;;;;14.07;8.57;;;25.70;25.20;;;;;;5058965;28;20021;-49
2022/03/13 12:38:53;;;;;;;15.77;9.20;;;25.70;25.10;;;;;;5060590;28;20509;-51
2022/03/13 12:41:19;;;;;;;22.35;12.00;;;25.70;25.30;;;;;;5056670;28;20222;-50
2022/03/13 12:43:54;;;;;;;28.63;13.82;;;25.80;25.40;;;;;;5060166;28;20040;-50
2022/03/13 12:46:24;;;;;;;28.92;15.18;;;25.70;25.40;;;;;;5058527;28;20033;-50
2022/03/13 12:48:53;;;;;;;25.05;13.98;;;25.70;25.10;;;;;;5063082;28;20108;-50
2022/03/13 12:51:42;;;;;;;27.40;14.93;;;25.80;25.20;;;;;;5064022;28;20021;-50